createdAt,value
2019-03-21T00:01:59.897Z,8.97
2019-03-21T00:04:26.068Z,9.06
2019-03-21T00:06:52.268Z,9.07
2019-03-21T00:09:18.475Z,9.10
2019-03-21T00:12:00.461Z,8.92
2019-03-21T00:14:33.184Z,8.85
2019-03-21T00:17:00.269Z,8.78
2019-03-21T00:19:27.597Z,8.85
2019-03-21T00:21:53.893Z,8.75
2019-03-21T00:24:19.968Z,8.83
2019-03-21T00:26:46.275Z,8.62
2019-03-21T00:29:12.480Z,8.52
2019-03-21T00:31:38.662Z,8.50
2019-03-21T00:34:04.967Z,8.41
2019-03-21T00:36:31.270Z,8.43
2019-03-21T00:38:57.558Z,8.45
2019-03-21T00:41:23.774Z,8.58
2019-03-21T00:43:49.842Z,8.54
2019-03-21T00:46:15.955Z,8.45
2019-03-21T00:48:42.161Z,8.44
2019-03-21T00:51:08.352Z,8.36
2019-03-21T00:53:34.446Z,8.36
2019-03-21T00:56:00.567Z,8.32
2019-03-21T00:58:26.644Z,8.66
2019-03-21T01:00:56.348Z,8.59
2019-03-21T01:03:22.500Z,8.56
2019-03-21T01:05:48.781Z,8.48
2019-03-21T01:08:14.853Z,8.29
2019-03-21T01:10:40.980Z,8.27
2019-03-21T01:13:07.072Z,8.19
2019-03-21T01:15:33.653Z,8.27
2019-03-21T01:17:59.862Z,8.26
2019-03-21T01:20:25.934Z,8.24
2019-03-21T01:22:52.137Z,8.18
2019-03-21T01:25:34.883Z,8.17
2019-03-21T01:28:00.946Z,8.19
2019-03-21T01:30:27.132Z,8.17
2019-03-21T01:32:53.312Z,8.21
2019-03-21T01:35:19.408Z,8.25
2019-03-21T01:37:45.499Z,8.26
2019-03-21T01:40:21.502Z,8.24
2019-03-21T01:42:47.600Z,8.19
2019-03-21T01:45:19.963Z,8.20
2019-03-21T01:47:46.148Z,8.22
2019-03-21T01:50:15.706Z,8.23
2019-03-21T01:52:41.763Z,8.19
2019-03-21T01:55:11.374Z,8.21
2019-03-21T01:57:37.776Z,8.24
2019-03-21T02:00:24.281Z,8.30
2019-03-21T02:02:52.762Z,8.32
2019-03-21T02:05:18.853Z,8.34
2019-03-21T02:07:44.936Z,8.34
2019-03-21T02:10:15.384Z,8.33
2019-03-21T02:12:41.579Z,8.22
2019-03-21T02:15:12.845Z,8.18
2019-03-21T02:17:39.110Z,8.15
2019-03-21T02:20:09.034Z,8.12
2019-03-21T02:22:35.242Z,8.14
2019-03-21T02:25:01.441Z,8.08
2019-03-21T02:27:27.512Z,8.13
2019-03-21T02:29:53.737Z,8.14
2019-03-21T02:32:19.831Z,8.11
2019-03-21T02:34:45.940Z,8.12
2019-03-21T02:37:13.068Z,8.10
2019-03-21T02:39:39.184Z,8.10
2019-03-21T02:42:05.302Z,8.13
2019-03-21T02:44:31.364Z,8.08
2019-03-21T02:46:57.532Z,8.14
2019-03-21T02:49:23.653Z,8.01
2019-03-21T02:51:49.855Z,8.04
2019-03-21T02:54:16.029Z,8.05
2019-03-21T02:56:42.215Z,7.98
2019-03-21T02:59:08.273Z,7.83
2019-03-21T03:01:34.378Z,7.86
2019-03-21T03:04:00.672Z,7.82
2019-03-21T03:06:26.843Z,7.75
2019-03-21T03:08:53.017Z,7.71
2019-03-21T03:11:20.941Z,7.63
2019-03-21T03:13:49.029Z,7.66
2019-03-21T03:16:15.318Z,7.71
2019-03-21T03:18:41.459Z,7.75
2019-03-21T03:21:07.633Z,7.52
2019-03-21T03:23:33.712Z,7.48
2019-03-21T03:25:59.896Z,7.49
2019-03-21T03:28:32.500Z,7.50
2019-03-21T03:30:58.670Z,7.42
2019-03-21T03:33:25.169Z,7.36
2019-03-21T03:35:51.441Z,7.39
2019-03-21T03:38:17.511Z,7.53
2019-03-21T03:41:01.492Z,7.34
2019-03-21T03:43:27.818Z,7.36
2019-03-21T03:45:53.866Z,7.39
2019-03-21T03:48:20.381Z,7.37
2019-03-21T03:50:46.453Z,7.30
2019-03-21T03:53:13.653Z,7.32
2019-03-21T03:55:39.757Z,7.48
2019-03-21T03:58:18.258Z,7.45
2019-03-21T04:00:44.597Z,7.53
2019-03-21T04:03:10.785Z,7.55
2019-03-21T04:05:36.966Z,7.50
2019-03-21T04:08:04.189Z,7.52
2019-03-21T04:10:38.914Z,7.41
2019-03-21T04:13:05.225Z,7.27
2019-03-21T04:15:31.669Z,7.20
2019-03-21T04:17:57.971Z,7.15
2019-03-21T04:20:48.780Z,7.24
2019-03-21T04:23:18.577Z,7.17
2019-03-21T04:25:55.582Z,7.33
2019-03-21T04:28:21.764Z,7.39
2019-03-21T04:30:48.044Z,7.44
2019-03-21T04:33:14.316Z,7.25
2019-03-21T04:35:40.699Z,7.23
2019-03-21T04:38:06.899Z,7.17
2019-03-21T04:40:32.992Z,7.02
2019-03-21T04:42:59.164Z,7.04
2019-03-21T04:45:25.654Z,7.09
2019-03-21T04:47:51.874Z,6.99
2019-03-21T04:50:21.046Z,6.98
2019-03-21T04:52:47.137Z,6.94
2019-03-21T04:55:14.741Z,6.93
2019-03-21T04:57:40.812Z,6.85
2019-03-21T05:00:15.916Z,6.84
2019-03-21T05:02:42.657Z,6.91
2019-03-21T05:05:10.366Z,6.83
2019-03-21T05:07:36.585Z,6.84
2019-03-21T05:10:06.504Z,6.74
2019-03-21T05:12:32.640Z,6.78
2019-03-21T05:14:58.739Z,6.66
2019-03-21T05:17:24.947Z,6.66
2019-03-21T05:19:51.086Z,6.67
2019-03-21T05:22:17.266Z,6.66
2019-03-21T05:24:43.338Z,6.75
2019-03-21T05:27:09.537Z,6.69
2019-03-21T05:29:35.619Z,6.68
2019-03-21T05:32:03.807Z,6.70
2019-03-21T05:34:29.783Z,6.72
2019-03-21T05:36:55.863Z,6.87
2019-03-21T05:39:22.022Z,6.94
2019-03-21T05:41:48.085Z,7.00
2019-03-21T05:44:26.878Z,7.09
2019-03-21T05:46:53.252Z,6.96
2019-03-21T05:49:19.447Z,7.02
2019-03-21T05:51:45.654Z,7.16
2019-03-21T05:54:11.835Z,7.11
2019-03-21T05:56:38.017Z,7.01
2019-03-21T05:59:04.132Z,7.09
2019-03-21T06:01:30.304Z,7.02
2019-03-21T06:03:56.405Z,7.03
2019-03-21T06:06:31.897Z,7.15
2019-03-21T06:08:57.969Z,7.11
2019-03-21T06:11:24.222Z,7.09
2019-03-21T06:13:50.421Z,7.11
2019-03-21T06:16:16.545Z,7.11
2019-03-21T06:18:52.245Z,7.11
2019-03-21T06:21:22.187Z,7.08
2019-03-21T06:24:01.024Z,7.17
2019-03-21T06:26:46.285Z,7.14
2019-03-21T06:29:12.550Z,7.20
2019-03-21T06:31:38.758Z,7.36
2019-03-21T06:34:04.971Z,7.24
2019-03-21T06:36:31.101Z,7.33
2019-03-21T06:38:57.289Z,7.36
2019-03-21T06:41:23.379Z,7.30
2019-03-21T06:43:49.510Z,7.30
2019-03-21T06:46:15.587Z,7.25
2019-03-21T06:48:41.679Z,7.25
2019-03-21T06:51:07.876Z,7.23
2019-03-21T06:53:34.072Z,7.14
2019-03-21T06:56:00.277Z,7.08
2019-03-21T06:58:26.483Z,7.19
2019-03-21T07:00:52.682Z,7.46
2019-03-21T07:03:18.872Z,7.44
2019-03-21T07:05:44.938Z,7.47
2019-03-21T07:08:11.021Z,7.54
2019-03-21T07:10:37.280Z,7.59
2019-03-21T07:13:03.695Z,7.61
2019-03-21T07:15:29.957Z,7.70
2019-03-21T07:17:56.068Z,7.66
2019-03-21T07:20:22.235Z,7.66
2019-03-21T07:22:48.542Z,7.61
2019-03-21T07:25:14.843Z,7.59
2019-03-21T07:27:40.963Z,7.79
2019-03-21T07:30:09.956Z,7.94
2019-03-21T07:32:36.159Z,7.86
2019-03-21T07:35:04.556Z,8.18
2019-03-21T07:37:30.635Z,8.54
2019-03-21T07:39:56.745Z,8.50
2019-03-21T07:42:22.935Z,8.83
2019-03-21T07:44:49.034Z,8.87
2019-03-21T07:47:15.233Z,8.59
2019-03-21T07:49:41.416Z,8.79
2019-03-21T07:52:07.520Z,8.58
2019-03-21T07:54:33.692Z,8.66
2019-03-21T07:57:00.100Z,9.00
2019-03-21T07:59:26.278Z,9.18
2019-03-21T08:01:52.485Z,9.92
2019-03-21T08:04:18.585Z,9.36
2019-03-21T08:06:44.906Z,9.54
2019-03-21T08:09:11.033Z,10.06
2019-03-21T08:11:37.110Z,9.98
2019-03-21T08:14:03.501Z,10.33
2019-03-21T08:16:29.644Z,10.18
2019-03-21T08:18:55.764Z,11.25
2019-03-21T08:21:21.856Z,11.14
2019-03-21T08:23:47.943Z,10.39
2019-03-21T08:26:14.131Z,10.51
2019-03-21T08:28:40.215Z,10.10
2019-03-21T08:31:10.144Z,10.76
2019-03-21T08:33:36.355Z,11.03
2019-03-21T08:36:02.655Z,10.97
2019-03-21T08:38:28.877Z,11.11
2019-03-21T08:40:55.068Z,10.65
2019-03-21T08:43:21.154Z,11.32
2019-03-21T08:45:47.252Z,10.98
2019-03-21T08:48:13.431Z,10.88
2019-03-21T08:50:39.643Z,11.04
2019-03-21T08:53:05.715Z,11.02
2019-03-21T08:55:31.816Z,11.38
2019-03-21T08:57:58.006Z,11.69
2019-03-21T09:00:33.758Z,12.05
2019-03-21T09:02:53.403Z,12.62
2019-03-21T09:05:19.595Z,12.17
2019-03-21T09:07:45.717Z,12.14
2019-03-21T09:10:12.017Z,12.73
2019-03-21T09:12:38.246Z,12.73
2019-03-21T09:15:08.296Z,13.24
2019-03-21T09:17:34.446Z,12.76
2019-03-21T09:20:00.755Z,12.08
2019-03-21T09:22:27.575Z,12.15
2019-03-21T09:24:53.881Z,13.18
2019-03-21T09:27:19.972Z,13.70
2019-03-21T09:29:53.422Z,13.54
2019-03-21T09:32:14.285Z,13.15
2019-03-21T09:34:41.478Z,13.10
2019-03-21T09:37:07.585Z,13.42
2019-03-21T09:39:33.700Z,12.52
2019-03-21T09:41:59.879Z,12.97
2019-03-21T09:44:27.714Z,13.60
2019-03-21T09:46:55.827Z,13.60
2019-03-21T09:49:21.929Z,13.56
2019-03-21T09:51:48.153Z,14.04
2019-03-21T09:54:14.242Z,14.07
2019-03-21T09:56:40.350Z,13.61
2019-03-21T09:59:06.523Z,13.20
2019-03-21T10:01:32.836Z,13.56
2019-03-21T10:03:58.931Z,13.51
2019-03-21T10:06:25.132Z,13.73
2019-03-21T10:08:51.245Z,13.63
2019-03-21T10:11:17.340Z,14.05
2019-03-21T10:13:43.552Z,14.07
2019-03-21T10:16:09.796Z,14.04
2019-03-21T10:18:35.997Z,13.77
2019-03-21T10:21:02.179Z,13.74
2019-03-21T10:23:28.316Z,13.62
2019-03-21T10:25:54.617Z,13.72
2019-03-21T10:28:20.947Z,14.45
2019-03-21T10:30:47.186Z,14.42
2019-03-21T10:33:13.406Z,14.76
2019-03-21T10:35:39.806Z,15.39
2019-03-21T10:38:06.425Z,15.97
2019-03-21T10:40:32.682Z,15.40
2019-03-21T10:42:59.081Z,14.90
2019-03-21T10:45:25.338Z,14.13
2019-03-21T10:47:51.557Z,14.09
2019-03-21T10:50:29.040Z,14.42
2019-03-21T10:52:55.740Z,14.30
2019-03-21T10:55:21.840Z,14.84
2019-03-21T10:57:47.933Z,14.49
2019-03-21T11:00:14.157Z,14.22
2019-03-21T11:02:40.368Z,14.45
2019-03-21T11:05:06.566Z,13.93
2019-03-21T11:07:32.661Z,14.07
2019-03-21T11:09:58.856Z,14.16
2019-03-21T11:12:25.067Z,14.70
2019-03-21T11:14:51.138Z,14.57
2019-03-21T11:17:17.458Z,14.33
2019-03-21T11:19:43.773Z,13.98
2019-03-21T11:22:09.863Z,14.53
2019-03-21T11:24:36.067Z,15.38
2019-03-21T11:27:02.275Z,15.74
2019-03-21T11:29:28.394Z,15.26
2019-03-21T11:31:54.601Z,15.57
2019-03-21T11:34:21.786Z,15.65
2019-03-21T11:36:47.942Z,16.13
2019-03-21T11:39:14.143Z,15.01
2019-03-21T11:41:40.349Z,14.79
2019-03-21T11:44:06.635Z,15.03
2019-03-21T11:46:32.698Z,15.09
2019-03-21T11:48:58.833Z,15.74
2019-03-21T11:51:24.933Z,15.93
2019-03-21T11:53:50.997Z,15.02
2019-03-21T11:56:17.701Z,14.92
2019-03-21T11:58:43.808Z,15.35
2019-03-21T12:01:10.031Z,15.57
2019-03-21T12:03:36.368Z,16.10
2019-03-21T12:06:02.693Z,16.65
2019-03-21T12:08:28.800Z,17.56
2019-03-21T12:10:54.919Z,18.26
2019-03-21T12:13:21.065Z,18.14
2019-03-21T12:15:47.191Z,16.57
2019-03-21T12:18:13.415Z,15.82
2019-03-21T12:20:39.558Z,15.67
2019-03-21T12:23:05.755Z,15.42
2019-03-21T12:25:31.884Z,15.07
2019-03-21T12:27:58.176Z,15.34
2019-03-21T12:30:28.090Z,15.90
2019-03-21T12:32:54.217Z,15.93
2019-03-21T12:35:20.308Z,16.69
2019-03-21T12:37:46.385Z,16.50
2019-03-21T12:40:12.593Z,16.66
2019-03-21T12:42:38.686Z,17.49
2019-03-21T12:45:08.703Z,17.83
2019-03-21T12:47:34.882Z,16.90
2019-03-21T12:50:05.309Z,17.79
2019-03-21T12:52:40.998Z,18.75
2019-03-21T12:54:59.585Z,19.76
2019-03-21T12:57:25.656Z,18.76
2019-03-21T12:59:51.755Z,18.12
2019-03-21T13:02:17.929Z,19.40
2019-03-21T13:04:44.260Z,19.82
2019-03-21T13:07:10.367Z,20.20
2019-03-21T13:09:36.593Z,19.31
2019-03-21T13:12:02.915Z,20.12
2019-03-21T13:14:29.472Z,19.73
2019-03-21T13:16:55.718Z,20.46
2019-03-21T13:19:21.907Z,21.08
2019-03-21T13:21:48.230Z,20.91
2019-03-21T13:24:17.223Z,19.66
2019-03-21T13:26:42.375Z,18.57
2019-03-21T13:29:08.591Z,19.00
2019-03-21T13:31:34.715Z,18.37
2019-03-21T13:34:00.841Z,18.27
2019-03-21T13:36:27.023Z,18.96
2019-03-21T13:38:54.217Z,18.47
2019-03-21T13:41:20.307Z,18.83
2019-03-21T13:43:46.413Z,18.79
2019-03-21T13:46:12.580Z,18.24
2019-03-21T13:48:39.740Z,18.09
2019-03-21T13:51:05.846Z,19.07
2019-03-21T13:53:33.022Z,17.15
2019-03-21T13:55:59.351Z,16.88
2019-03-21T13:58:25.491Z,17.35
2019-03-21T14:00:51.562Z,17.91
2019-03-21T14:03:25.008Z,18.24
2019-03-21T14:05:45.755Z,18.44
2019-03-21T14:08:11.898Z,19.08
2019-03-21T14:10:38.086Z,19.24
2019-03-21T14:13:04.184Z,18.91
2019-03-21T14:15:30.332Z,18.45
2019-03-21T14:17:56.634Z,18.27
2019-03-21T14:20:22.948Z,18.35
2019-03-21T14:22:49.063Z,18.64
2019-03-21T14:25:15.364Z,18.64
2019-03-21T14:27:41.689Z,17.76
2019-03-21T14:30:13.981Z,17.78
2019-03-21T14:32:40.191Z,18.47
2019-03-21T14:35:07.330Z,18.83
2019-03-21T14:37:33.446Z,19.01
2019-03-21T14:39:59.540Z,19.40
2019-03-21T14:42:25.711Z,19.22
2019-03-21T14:44:51.970Z,19.13
2019-03-21T14:47:18.173Z,19.36
2019-03-21T14:49:44.384Z,19.49
2019-03-21T14:52:10.579Z,19.42
2019-03-21T14:54:36.782Z,19.50
2019-03-21T14:57:02.988Z,19.49
2019-03-21T14:59:29.195Z,19.09
2019-03-21T15:01:55.341Z,18.74
2019-03-21T15:04:21.465Z,18.37
2019-03-21T15:06:47.548Z,17.89
2019-03-21T15:09:13.646Z,16.60
2019-03-21T15:11:39.860Z,16.30
2019-03-21T15:14:05.990Z,16.32
2019-03-21T15:16:32.101Z,16.55
2019-03-21T15:18:59.209Z,16.28
2019-03-21T15:21:25.421Z,16.48
2019-03-21T15:23:59.309Z,16.69
2019-03-21T15:26:19.704Z,17.16
2019-03-21T15:28:45.800Z,17.25
2019-03-21T15:31:11.973Z,17.56
2019-03-21T15:33:38.143Z,16.98
2019-03-21T15:36:04.458Z,17.22
2019-03-21T15:38:30.636Z,17.58
2019-03-21T15:40:56.758Z,17.44
2019-03-21T15:43:22.987Z,17.37
2019-03-21T15:45:49.176Z,17.61
2019-03-21T15:48:15.471Z,17.83
2019-03-21T15:50:42.777Z,18.33
2019-03-21T15:53:08.899Z,18.82
2019-03-21T15:55:35.202Z,18.68
2019-03-21T15:58:01.507Z,18.89
2019-03-21T16:00:36.359Z,17.48
2019-03-21T16:03:04.871Z,17.44
2019-03-21T16:05:31.192Z,17.69
2019-03-21T16:07:57.288Z,17.56
2019-03-21T16:10:23.358Z,17.59
2019-03-21T16:12:49.589Z,17.87
2019-03-21T16:15:15.814Z,17.76
2019-03-21T16:17:42.976Z,17.12
2019-03-21T16:20:09.317Z,17.07
2019-03-21T16:22:35.750Z,17.35
2019-03-21T16:25:04.394Z,17.71
2019-03-21T16:27:31.568Z,17.84
2019-03-21T16:29:57.762Z,17.95
2019-03-21T16:32:23.986Z,18.45
2019-03-21T16:34:50.079Z,18.76
2019-03-21T16:37:16.325Z,18.67
2019-03-21T16:39:42.419Z,18.34
2019-03-21T16:42:08.548Z,18.06
2019-03-21T16:44:34.739Z,17.74
2019-03-21T16:47:02.017Z,17.66
2019-03-21T16:49:28.158Z,17.60
2019-03-21T16:51:54.385Z,17.90
2019-03-21T16:54:20.723Z,17.90
2019-03-21T16:56:46.839Z,17.63
2019-03-21T16:59:13.067Z,17.64
2019-03-21T17:01:39.311Z,17.60
2019-03-21T17:04:05.502Z,17.57
2019-03-21T17:06:31.739Z,17.47
2019-03-21T17:08:57.805Z,17.12
2019-03-21T17:11:23.944Z,16.83
2019-03-21T17:13:50.044Z,16.70
2019-03-21T17:16:16.293Z,16.69
2019-03-21T17:18:42.547Z,16.53
2019-03-21T17:21:09.741Z,16.55
2019-03-21T17:23:37.129Z,16.00
2019-03-21T17:26:03.426Z,15.63
2019-03-21T17:28:29.656Z,14.94
2019-03-21T17:30:55.893Z,14.86
2019-03-21T17:33:22.028Z,14.80
2019-03-21T17:35:48.280Z,14.93
2019-03-21T17:38:14.606Z,14.96
2019-03-21T17:40:40.714Z,14.86
2019-03-21T17:43:06.921Z,14.92
2019-03-21T17:45:33.411Z,14.84
2019-03-21T17:47:59.487Z,14.79
2019-03-21T17:50:25.750Z,14.82
2019-03-21T17:52:51.958Z,14.81
2019-03-21T17:55:19.364Z,14.84
2019-03-21T17:57:45.649Z,14.74
2019-03-21T18:00:21.227Z,14.34
2019-03-21T18:02:47.648Z,13.98
2019-03-21T18:05:13.971Z,13.88
2019-03-21T18:07:40.087Z,13.54
2019-03-21T18:10:16.091Z,13.34
2019-03-21T18:12:42.303Z,13.13
2019-03-21T18:15:08.614Z,13.24
2019-03-21T18:17:34.760Z,13.19
2019-03-21T18:20:01.005Z,12.94
2019-03-21T18:22:27.322Z,12.84
2019-03-21T18:24:54.293Z,12.89
2019-03-21T18:27:20.582Z,12.69
2019-03-21T18:29:46.809Z,12.54
2019-03-21T18:32:12.949Z,12.31
2019-03-21T18:34:39.059Z,12.16
2019-03-21T18:37:05.193Z,11.98
2019-03-21T18:39:31.329Z,11.86
2019-03-21T18:41:57.559Z,12.02
2019-03-21T18:44:23.777Z,12.18
2019-03-21T18:46:49.905Z,12.22
2019-03-21T18:49:16.034Z,12.21
2019-03-21T18:51:42.329Z,11.95
2019-03-21T18:54:08.507Z,11.59
2019-03-21T18:56:34.620Z,11.59
2019-03-21T18:59:00.885Z,11.79
2019-03-21T19:01:27.123Z,11.80
2019-03-21T19:03:53.232Z,11.89
2019-03-21T19:06:19.378Z,12.03
2019-03-21T19:08:45.633Z,12.26
2019-03-21T19:11:11.961Z,11.90
2019-03-21T19:13:38.264Z,11.90
2019-03-21T19:16:05.373Z,11.87
2019-03-21T19:18:31.582Z,11.58
2019-03-21T19:20:57.814Z,11.22
2019-03-21T19:23:24.017Z,11.18
2019-03-21T19:25:50.239Z,10.95
2019-03-21T19:28:16.631Z,10.58
2019-03-21T19:30:42.764Z,10.77
2019-03-21T19:33:09.134Z,10.77
2019-03-21T19:35:35.442Z,10.50
2019-03-21T19:38:01.692Z,10.53
2019-03-21T19:40:28.000Z,10.44
2019-03-21T19:42:54.239Z,10.37
2019-03-21T19:45:20.596Z,10.53
2019-03-21T19:47:46.960Z,10.65
2019-03-21T19:50:17.752Z,10.72
2019-03-21T19:52:44.366Z,10.86
2019-03-21T19:55:10.932Z,10.92
2019-03-21T19:57:37.241Z,10.90
2019-03-21T20:00:15.751Z,10.88
2019-03-21T20:02:42.250Z,10.59
2019-03-21T20:05:09.670Z,9.94
2019-03-21T20:07:35.990Z,9.70
2019-03-21T20:10:03.615Z,9.89
2019-03-21T20:12:29.861Z,10.14
2019-03-21T20:14:56.329Z,10.23
2019-03-21T20:17:22.555Z,10.15
2019-03-21T20:19:48.794Z,9.91
2019-03-21T20:22:15.174Z,9.69
2019-03-21T20:24:41.306Z,9.41
2019-03-21T20:27:09.879Z,9.23
2019-03-21T20:29:36.256Z,9.45
2019-03-21T20:32:02.535Z,9.51
2019-03-21T20:34:28.758Z,9.58
2019-03-21T20:36:56.130Z,9.63
2019-03-21T20:39:22.450Z,9.65
2019-03-21T20:41:48.656Z,9.84
2019-03-21T20:44:15.623Z,10.04
2019-03-21T20:46:42.050Z,9.91
2019-03-21T20:49:09.460Z,9.70
2019-03-21T20:51:36.792Z,9.81
2019-03-21T20:54:03.113Z,9.48
2019-03-21T20:56:29.425Z,9.09
2019-03-21T20:58:55.775Z,8.93
2019-03-21T21:01:22.000Z,8.91
2019-03-21T21:03:48.337Z,8.75
2019-03-21T21:06:14.688Z,8.45
2019-03-21T21:08:40.988Z,8.41
2019-03-21T21:11:07.357Z,8.67
2019-03-21T21:13:33.469Z,8.92
2019-03-21T21:15:59.674Z,8.97
2019-03-21T21:18:26.022Z,8.86
2019-03-21T21:20:52.206Z,8.65
2019-03-21T21:23:18.515Z,8.76
2019-03-21T21:25:44.629Z,8.80
2019-03-21T21:28:10.837Z,8.88
2019-03-21T21:30:37.062Z,8.84
2019-03-21T21:33:03.260Z,8.84
2019-03-21T21:35:29.442Z,8.85
2019-03-21T21:37:55.500Z,8.84
2019-03-21T21:40:21.620Z,8.80
2019-03-21T21:42:47.843Z,8.63
2019-03-21T21:45:15.827Z,8.96
2019-03-21T21:47:42.137Z,8.93
2019-03-21T21:50:13.862Z,8.62
2019-03-21T21:52:42.304Z,8.37
2019-03-21T21:55:08.462Z,8.62
2019-03-21T21:57:34.808Z,8.60
2019-03-21T22:00:01.092Z,8.55
2019-03-21T22:02:27.498Z,8.46
2019-03-21T22:04:53.680Z,8.35
2019-03-21T22:07:19.878Z,8.21
2019-03-21T22:09:45.975Z,8.29
2019-03-21T22:12:12.068Z,8.22
2019-03-21T22:14:38.173Z,8.25
2019-03-21T22:17:04.369Z,8.27
2019-03-21T22:19:30.492Z,8.39
2019-03-21T22:21:56.741Z,8.57
2019-03-21T22:24:22.835Z,8.56
2019-03-21T22:26:48.951Z,8.38
2019-03-21T22:29:15.313Z,8.25
2019-03-21T22:31:41.519Z,8.36
2019-03-21T22:34:07.710Z,8.31
2019-03-21T22:36:33.817Z,8.23
2019-03-21T22:39:00.012Z,8.26
2019-03-21T22:41:26.098Z,8.36
2019-03-21T22:43:52.226Z,8.26
2019-03-21T22:46:18.305Z,8.23
2019-03-21T22:48:44.413Z,8.17
2019-03-21T22:51:10.509Z,8.13
2019-03-21T22:53:36.613Z,8.07
2019-03-21T22:56:02.904Z,8.04
2019-03-21T22:58:31.946Z,8.15
2019-03-21T23:00:57.292Z,8.20
2019-03-21T23:03:23.667Z,7.99
2019-03-21T23:05:49.866Z,8.00
2019-03-21T23:08:16.022Z,8.16
2019-03-21T23:10:44.937Z,8.13
2019-03-21T23:13:10.222Z,8.20
2019-03-21T23:15:36.305Z,7.92
2019-03-21T23:18:02.694Z,7.91
2019-03-21T23:20:28.797Z,7.77
2019-03-21T23:22:55.136Z,7.72
2019-03-21T23:25:21.531Z,7.71
2019-03-21T23:27:47.923Z,7.90
2019-03-21T23:30:18.123Z,7.88
2019-03-21T23:32:44.530Z,7.55
2019-03-21T23:35:11.048Z,7.55
2019-03-21T23:37:37.435Z,7.60
2019-03-21T23:40:11.879Z,7.37
2019-03-21T23:42:37.982Z,7.34
2019-03-21T23:45:06.059Z,6.96
2019-03-21T23:47:32.263Z,6.80
2019-03-21T23:49:58.467Z,6.84
2019-03-21T23:52:24.701Z,6.81
2019-03-21T23:54:50.806Z,6.82
2019-03-21T23:57:16.911Z,6.86
2019-03-21T23:59:42.998Z,6.89
